Startpagina
METAR-TAF:

METAR-TAF

Vliegvelden :

Tel Aviv / Ben Gurion, Israël

Luchthaven Ben-Gurion

breedte: 32-00N, lengte: 034-54E, hoogte: 40 m

Actueel weer

Dit bericht is 25 minuten geleden gemaakt, om 18:50 UTC
Wind 3 kt uit variabele richting
Temperatuur 22°C
Vochtigheid 69%
Druk 1015 hPa
Zicht 10 km of meer
Verspreide wolken op 3000 ft

METAR: LLBG 211850Z VRB03KT 9999 SCT030 22/16 Q1015 NOSIG

Tijdstip: 22:15 (19:15 UTC)

Verwachting

Dit bericht is 2 uur en het 13 minuten geleden gemaakt, om 17:02 UTC
Verwachting geldig van 21 om 18 UTC tot 22 om 18 UTC
Wind 3 kt uit variabele richting
Zicht 10 km of meer
Verspreide wolken op 3000 ft
Tijdelijke
van 21 om 21 UTC tot 22 om 05 UTC
Wind 5 kt uit het zuidoosten
Gebroken wolken op 2500 ft
Wijzigt naar
van 22 om 07 UTC tot 22 om 09 UTC
Wind 10 kt uit het westnoordwesten

TAF: LLBG 211702Z 2118/2218 VRB03KT 9999 SCT030 TEMPO 2121/2205 13005KT BKN025 BECMG 2207/2209 30010KT TX27/2212Z TN19/2204Z

Waarnemingen en weersverwachtingen van meer dan 4000 vliegvelden (METAR en TAF).

De beschikbare stations zijn de gele en rode punten op de kaart.

Ga met uw muis naar het station om de naam te zien.

Klik dan om waarnemingen en weersverwachtingen te zien.

kaart wijzigen: klik op de groene knoppen met een zwart kruis om in te zoomen, op de groene knop met een streepje om uit te zoomen of op de groene pijlen voor aangrenzende kaarten.


METAR-TAF: